STL weather

Lambert St Louis International Airport
St Louis, Missouri, United States

Public forecast

Using degrees Fahrenheit for public forecast. Weather courtesy of forecast.io.

METAR (pilot weather report)

Retrieved 2017/03/29 08:51 UTC (20 minutes ago):

KSTL 290851Z 08010KT 10SM OVC031 11/07 A3005

TAF (pilot weather forecast)

Forecast is more than 12 hours old.

Retrieved 2017/03/28 00:39 UTC (1 day ago):

TAF KSTL 282335Z 2900/3006 05007KT P6SM OVC030 FM290300 07007KT P6SM BKN035 FM290900 08009KT P6SM BKN015 FM291400 08009KT 6SM -SHRA OVC010 FM291800 09013KT P6SM OVC008 FM300000 10013KT P6SM OVC015